Time,TemperatureF,DewpointF,PressureIn,WindDirection,WindDirectionDegrees,WindSpeedMPH,WindSpeedGustMPH,Humidity,HourlyPrecipIn,Conditions,Clouds,dailyrainin,SoftwareType,DateUTC
2013-03-17 00:13:00,64.7,42.0,29.84,NW,307,1.0,3.0,43,0.00,,,0.00,weatherlink.com 1.10,2013-03-17 04:13:00,
2013-03-17 00:28:00,64.3,41.0,29.84,SW,231,1.0,4.0,43,0.00,,,0.00,weatherlink.com 1.10,2013-03-17 04:28:00,
2013-03-17 00:43:00,63.9,41.0,29.84,SW,232,0.0,4.0,44,0.00,,,0.00,weatherlink.com 1.10,2013-03-17 04:43:00,
2013-03-17 00:58:00,63.4,42.0,29.84,West,280,0.0,3.0,45,0.00,,,0.00,weatherlink.com 1.10,2013-03-17 04:58:00,
2013-03-17 01:13:00,62.9,42.0,29.84,SW,219,0.0,3.0,46,0.00,,,0.00,weatherlink.com 1.10,2013-03-17 05:13:00,
2013-03-17 01:28:00,62.4,42.0,29.85,WNW,302,0.0,1.0,47,0.00,,,0.00,weatherlink.com 1.10,2013-03-17 05:28:00,
2013-03-17 01:43:00,61.1,42.0,29.85,WNW,302,0.0,0.0,50,0.00,,,0.00,weatherlink.com 1.10,2013-03-17 05:43:00,
2013-03-17 01:58:00,59.3,42.0,29.85,WNW,302,1.0,1.0,53,0.00,,,0.00,weatherlink.com 1.10,2013-03-17 05:58:00,
2013-03-17 02:13:00,59.4,42.0,29.86,SW,225,0.0,3.0,52,0.00,,,0.00,weatherlink.com 1.10,2013-03-17 06:13:00,
2013-03-17 02:28:00,59.8,42.0,29.86,SSW,194,0.0,2.0,52,0.00,,,0.00,weatherlink.com 1.10,2013-03-17 06:28:00,
2013-03-17 02:43:00,59.8,42.0,29.86,WSW,240,0.0,3.0,53,0.00,,,0.00,weatherlink.com 1.10,2013-03-17 06:43:00,
2013-03-17 03:13:00,58.6,43.0,29.86,WSW,240,0.0,1.0,57,0.00,,,0.00,weatherlink.com 1.10,2013-03-17 07:13:00,
2013-03-17 03:28:00,57.2,43.0,29.86,WSW,240,0.0,2.0,59,0.00,,,0.00,weatherlink.com 1.10,2013-03-17 07:28:00,
2013-03-17 03:43:00,56.2,43.0,29.86,WSW,240,0.0,1.0,62,0.00,,,0.00,weatherlink.com 1.10,2013-03-17 07:43:00,
2013-03-17 03:58:00,55.5,43.0,29.86,WSW,240,0.0,1.0,63,0.00,,,0.00,weatherlink.com 1.10,2013-03-17 07:58:00,
2013-03-17 04:13:00,54.8,43.0,29.86,WSW,240,0.0,1.0,64,0.00,,,0.00,weatherlink.com 1.10,2013-03-17 08:13:00,
2013-03-17 04:28:00,54.2,43.0,29.86,WSW,240,1.0,1.0,66,0.00,,,0.00,weatherlink.com 1.10,2013-03-17 08:28:00,
2013-03-17 04:43:00,54.1,43.0,29.86,WSW,240,0.0,2.0,66,0.00,,,0.00,weatherlink.com 1.10,2013-03-17 08:43:00,
2013-03-17 04:58:00,54.5,43.0,29.86,WSW,240,0.0,1.0,65,0.00,,,0.00,weatherlink.com 1.10,2013-03-17 08:58:00,
2013-03-17 05:13:00,54.4,43.0,29.86,SW,232,0.0,2.0,66,0.00,,,0.00,weatherlink.com 1.10,2013-03-17 09:13:00,
2013-03-17 05:28:00,54.2,43.0,29.86,SW,232,0.0,1.0,67,0.00,,,0.00,weatherlink.com 1.10,2013-03-17 09:28:00,
2013-03-17 05:43:00,53.3,44.0,29.87,SW,232,0.0,2.0,70,0.00,,,0.00,weatherlink.com 1.10,2013-03-17 09:43:00,
2013-03-17 05:59:00,52.7,44.0,29.87,SW,232,0.0,0.0,72,0.00,,,0.00,weatherlink.com 1.10,2013-03-17 09:59:00,
2013-03-17 06:14:00,51.9,43.0,29.88,SW,233,0.0,0.0,72,0.00,,,0.00,weatherlink.com 1.10,2013-03-17 10:14:00,
2013-03-17 06:29:00,51.3,43.0,29.88,SW,232,0.0,2.0,74,0.00,,,0.00,weatherlink.com 1.10,2013-03-17 10:29:00,
2013-03-17 06:44:00,50.8,43.0,29.89,SW,232,0.0,0.0,75,0.00,,,0.00,weatherlink.com 1.10,2013-03-17 10:44:00,
2013-03-17 06:59:00,50.3,43.0,29.89,SW,232,0.0,0.0,76,0.00,,,0.00,weatherlink.com 1.10,2013-03-17 10:59:00,
2013-03-17 07:14:00,50.2,43.0,29.88,SW,232,0.0,1.0,77,0.00,,,0.00,weatherlink.com 1.10,2013-03-17 11:14:00,
2013-03-17 07:29:00,50.5,43.0,29.89,SW,232,0.0,1.0,76,0.00,,,0.00,weatherlink.com 1.10,2013-03-17 11:29:00,
2013-03-17 07:44:00,50.7,43.0,29.89,NNW,342,0.0,2.0,76,0.00,,,0.00,weatherlink.com 1.10,2013-03-17 11:44:00,
2013-03-17 07:59:00,51.2,44.0,29.90,SSW,202,1.0,2.0,76,0.00,,,0.00,weatherlink.com 1.10,2013-03-17 11:59:00,
2013-03-17 08:14:00,53.0,44.0,29.91,South,184,0.0,2.0,72,0.00,,,0.00,weatherlink.com 1.10,2013-03-17 12:14:00,
2013-03-17 08:29:00,55.4,45.0,29.91,SW,224,1.0,4.0,68,0.00,,,0.00,weatherlink.com 1.10,2013-03-17 12:29:00,
2013-03-17 08:44:00,57.5,45.0,29.91,ESE,109,1.0,5.0,64,0.00,,,0.00,weatherlink.com 1.10,2013-03-17 12:44:00,
2013-03-17 08:59:00,58.6,45.0,29.92,SSE,153,0.0,6.0,61,0.00,,,0.00,weatherlink.com 1.10,2013-03-17 12:59:00,
2013-03-17 09:14:00,58.9,45.0,29.92,South,177,2.0,7.0,61,0.00,,,0.00,weatherlink.com 1.10,2013-03-17 13:14:00,
2013-03-17 09:29:00,59.6,46.0,29.92,SSW,195,2.0,5.0,61,0.00,,,0.00,weatherlink.com 1.10,2013-03-17 13:29:00,
2013-03-17 09:44:00,59.9,46.0,29.92,WNW,297,2.0,5.0,61,0.00,,,0.00,weatherlink.com 1.10,2013-03-17 13:44:00,
2013-03-17 09:59:00,60.4,46.0,29.92,West,275,2.0,7.0,60,0.00,,,0.00,weatherlink.com 1.10,2013-03-17 13:59:00,
2013-03-17 10:14:00,61.0,47.0,29.93,SSE,152,0.0,5.0,60,0.00,,,0.00,weatherlink.com 1.10,2013-03-17 14:14:00,
2013-03-17 10:29:00,62.0,47.0,29.93,South,183,4.0,4.0,59,0.00,,,0.00,weatherlink.com 1.10,2013-03-17 14:29:00,
2013-03-17 10:44:00,63.1,47.0,29.93,WNW,287,0.0,4.0,57,0.00,,,0.00,weatherlink.com 1.10,2013-03-17 14:44:00,
2013-03-17 10:59:00,64.4,48.0,29.93,SW,228,3.0,8.0,55,0.00,,,0.00,weatherlink.com 1.10,2013-03-17 14:59:00,
2013-03-17 11:14:00,65.5,49.0,29.93,West,278,2.0,5.0,56,0.00,,,0.00,weatherlink.com 1.10,2013-03-17 15:14:00,
2013-03-17 11:29:00,66.8,49.0,29.93,SSE,162,1.0,4.0,53,0.00,,,0.00,weatherlink.com 1.10,2013-03-17 15:29:00,
2013-03-17 11:44:00,68.2,49.0,29.93,South,170,1.0,7.0,51,0.00,,,0.00,weatherlink.com 1.10,2013-03-17 15:44:00,
2013-03-17 11:59:00,69.7,51.0,29.92,SW,228,3.0,4.0,51,0.00,,,0.00,weatherlink.com 1.10,2013-03-17 15:59:00,
2013-03-17 12:14:00,71.0,51.0,29.92,West,267,1.0,4.0,49,0.00,,,0.00,weatherlink.com 1.10,2013-03-17 16:14:00,
2013-03-17 12:30:00,72.2,51.0,29.92,West,279,2.0,5.0,47,0.00,,,0.00,weatherlink.com 1.10,2013-03-17 16:30:00,
2013-03-17 12:45:00,73.1,51.0,29.92,WSW,254,2.0,5.0,46,0.00,,,0.00,weatherlink.com 1.10,2013-03-17 16:45:00,
2013-03-17 13:00:00,73.9,52.0,29.91,West,267,1.0,4.0,47,0.00,,,0.00,weatherlink.com 1.10,2013-03-17 17:00:00,
2013-03-17 13:15:00,74.1,51.0,29.91,West,263,2.0,6.0,45,0.00,,,0.00,weatherlink.com 1.10,2013-03-17 17:15:00,
2013-03-17 13:30:00,74.8,51.0,29.90,ESE,112,0.0,5.0,44,0.00,,,0.00,weatherlink.com 1.10,2013-03-17 17:30:00,
2013-03-17 13:45:00,75.1,53.0,29.89,WNW,298,3.0,4.0,47,0.00,,,0.00,weatherlink.com 1.10,2013-03-17 17:45:00,
2013-03-17 14:00:00,75.3,52.0,29.89,NW,311,3.0,3.0,45,0.00,,,0.00,weatherlink.com 1.10,2013-03-17 18:00:00,
2013-03-17 14:30:00,77.4,52.0,29.86,ESE,122,3.0,7.0,42,0.00,,,0.00,weatherlink.com 1.10,2013-03-17 18:30:00,
2013-03-17 14:45:00,76.5,52.0,29.86,SSW,199,2.0,5.0,43,0.00,,,0.00,weatherlink.com 1.10,2013-03-17 18:45:00,
2013-03-17 15:00:00,76.7,52.0,29.85,South,172,1.0,5.0,43,0.00,,,0.00,weatherlink.com 1.10,2013-03-17 19:00:00,
2013-03-17 15:15:00,77.5,54.0,29.84,ESE,105,2.0,7.0,44,0.00,,,0.00,weatherlink.com 1.10,2013-03-17 19:15:00,
2013-03-17 15:30:00,77.7,53.0,29.85,ESE,123,4.0,8.0,42,0.00,,,0.00,weatherlink.com 1.10,2013-03-17 19:30:00,
2013-03-17 15:45:00,76.6,52.0,29.85,SE,138,2.0,11.0,42,0.00,,,0.00,weatherlink.com 1.10,2013-03-17 19:45:00,
2013-03-17 16:00:00,76.0,52.0,29.84,SE,124,6.0,7.0,43,0.00,,,0.00,weatherlink.com 1.10,2013-03-17 20:00:00,
2013-03-17 16:15:00,75.9,55.0,29.85,WNW,282,1.0,6.0,49,0.00,,,0.00,weatherlink.com 1.10,2013-03-17 20:15:00,
2013-03-17 16:30:00,72.4,56.0,29.85,NE,53,2.0,6.0,57,0.00,,,0.00,weatherlink.com 1.10,2013-03-17 20:30:00,
2013-03-17 16:45:00,70.6,55.0,29.86,NE,55,2.0,7.0,58,0.00,,,0.00,weatherlink.com 1.10,2013-03-17 20:45:00,
2013-03-17 17:00:00,68.5,55.0,29.87,SE,132,2.0,6.0,63,0.00,,,0.00,weatherlink.com 1.10,2013-03-17 21:00:00,
2013-03-17 17:15:00,67.6,55.0,29.88,SSE,159,3.0,6.0,64,0.01,,,0.01,weatherlink.com 1.10,2013-03-17 21:15:00,
2013-03-17 17:30:00,67.7,55.0,29.88,SE,128,3.0,5.0,65,0.01,,,0.01,weatherlink.com 1.10,2013-03-17 21:30:00,
2013-03-17 17:45:00,66.7,54.0,29.89,ESE,123,2.0,5.0,65,0.01,,,0.01,weatherlink.com 1.10,2013-03-17 21:45:00,
2013-03-17 18:00:00,65.7,54.0,29.89,NNE,33,2.0,6.0,67,0.01,,,0.01,weatherlink.com 1.10,2013-03-17 22:00:00,
2013-03-17 18:15:00,65.2,54.0,29.89,East,97,1.0,8.0,67,0.00,,,0.01,weatherlink.com 1.10,2013-03-17 22:15:00,
2013-03-17 18:30:00,64.6,54.0,29.89,SE,128,3.0,6.0,68,0.00,,,0.01,weatherlink.com 1.10,2013-03-17 22:30:00,
2013-03-17 18:45:00,64.0,54.0,29.90,ENE,65,1.0,4.0,69,0.00,,,0.01,weatherlink.com 1.10,2013-03-17 22:45:00,
2013-03-17 19:00:00,63.4,53.0,29.90,ESE,106,1.0,4.0,70,0.00,,,0.01,weatherlink.com 1.10,2013-03-17 23:00:00,
2013-03-17 19:15:00,62.3,52.0,29.92,NW,323,0.0,5.0,69,0.00,,,0.01,weatherlink.com 1.10,2013-03-17 23:15:00,
2013-03-17 19:30:00,61.3,51.0,29.93,ESE,112,4.0,5.0,70,0.00,,,0.01,weatherlink.com 1.10,2013-03-17 23:30:00,
2013-03-17 19:45:00,60.2,50.0,29.93,NE,55,2.0,8.0,68,0.00,,,0.01,weatherlink.com 1.10,2013-03-17 23:45:00,
2013-03-17 20:00:00,59.5,48.0,29.95,ENE,68,1.0,5.0,67,0.00,,,0.01,weatherlink.com 1.10,2013-03-18 00:00:00,
2013-03-17 20:15:00,58.2,47.0,29.96,NE,36,0.0,8.0,67,0.00,,,0.01,weatherlink.com 1.10,2013-03-18 00:15:00,
2013-03-17 20:30:00,56.9,47.0,29.97,WNW,297,4.0,8.0,69,0.00,,,0.01,weatherlink.com 1.10,2013-03-18 00:30:00,
2013-03-17 20:45:00,55.7,46.0,29.98,NE,43,2.0,4.0,70,0.00,,,0.01,weatherlink.com 1.10,2013-03-18 00:45:00,
2013-03-17 21:00:00,54.8,46.0,29.99,NE,36,2.0,9.0,72,0.00,,,0.01,weatherlink.com 1.10,2013-03-18 01:00:00,
2013-03-17 21:15:00,53.6,45.0,30.01,East,96,2.0,8.0,73,0.00,,,0.01,weatherlink.com 1.10,2013-03-18 01:15:00,
2013-03-17 21:30:00,52.8,45.0,30.01,North,5,5.0,7.0,74,0.00,,,0.01,weatherlink.com 1.10,2013-03-18 01:30:00,
2013-03-17 21:45:00,52.0,44.0,30.02,ESE,120,4.0,5.0,74,0.00,,,0.01,weatherlink.com 1.10,2013-03-18 01:45:00,
2013-03-17 22:00:00,50.9,43.0,30.02,NE,55,3.0,12.0,75,0.00,,,0.01,weatherlink.com 1.10,2013-03-18 02:00:00,
2013-03-17 22:15:00,50.4,43.0,30.04,ESE,123,0.0,6.0,76,0.00,,,0.01,weatherlink.com 1.10,2013-03-18 02:15:00,
2013-03-17 22:30:00,49.9,43.0,30.05,ESE,105,0.0,5.0,76,0.00,,,0.01,weatherlink.com 1.10,2013-03-18 02:30:00,
2013-03-17 22:45:00,49.4,42.0,30.05,ESE,117,4.0,7.0,77,0.00,,,0.01,weatherlink.com 1.10,2013-03-18 02:45:00,
2013-03-17 23:00:00,48.9,42.0,30.05,ENE,76,2.0,6.0,78,0.00,,,0.01,weatherlink.com 1.10,2013-03-18 03:00:00,
2013-03-17 23:16:00,48.5,42.0,30.06,NE,44,1.0,7.0,78,0.00,,,0.01,weatherlink.com 1.10,2013-03-18 03:16:00,
2013-03-17 23:31:00,48.3,42.0,30.06,NNE,24,2.0,7.0,79,0.00,,,0.01,weatherlink.com 1.10,2013-03-18 03:31:00,
2013-03-17 23:46:00,48.0,42.0,30.06,NE,46,0.0,4.0,79,0.00,,,0.01,weatherlink.com 1.10,2013-03-18 03:46:00,